Time;durP1;ratioP1;P1;durP2;ratioP2;P2;SDS_P1;SDS_P2;PMS_P1;PMS_P2;Temp;Humidity;BMP_temperature;BMP_pressure;BME280_temperature;BME280_humidity;BME280_pressure;Samples;Min_cycle;Max_cycle;Signal;HPM_P1;HPM_P2
2022/10/21 00:00:53;;;;;;;3.77;3.03;;;;;;;10.51;91.21;101184.34;6271219;28;20223;-69
2022/10/21 00:04:14;;;;;;;4.07;3.67;;;;;;;10.69;90.29;101177.41;6298693;28;20234;-71
2022/10/21 00:07:36;;;;;;;5.50;3.80;;;;;;;10.79;89.57;101160.31;6283715;28;20743;-69
2022/10/21 00:11:00;;;;;;;5.40;4.63;;;;;;;10.88;88.94;101164.94;6289315;28;20253;-70
2022/10/21 00:14:21;;;;;;;3.70;3.40;;;;;;;10.55;89.69;101158.84;6290662;28;20246;-70
2022/10/21 00:17:42;;;;;;;6.57;4.00;;;;;;;10.69;90.13;101164.78;6277674;28;20223;-70
2022/10/21 00:21:07;;;;;;;4.47;3.30;;;;;;;10.46;90.90;101157.78;6279340;28;20314;-70
2022/10/21 00:24:28;;;;;;;3.93;2.57;;;;;;;10.52;90.28;101146.47;6292571;28;20226;-69
2022/10/21 00:27:50;;;;;;;4.20;3.80;;;;;;;10.64;89.89;101156.22;6279684;28;20230;-71
2022/10/21 00:31:13;;;;;;;3.90;3.50;;;;;;;10.62;89.84;101154.66;6289254;28;20235;-71
2022/10/21 00:34:34;;;;;;;5.47;3.57;;;;;;;10.69;90.11;101145.03;6294585;28;20232;-69
2022/10/21 00:37:55;;;;;;;3.60;3.27;;;;;;;10.64;89.41;101137.34;6284383;28;20230;-70
2022/10/21 00:41:18;;;;;;;5.70;3.50;;;;;;;10.52;90.77;101135.69;6280716;28;20605;-70
2022/10/21 00:44:41;;;;;;;3.53;3.23;;;;;;;10.37;91.13;101135.13;6293017;28;20703;-70
2022/10/21 00:48:05;;;;;;;5.07;3.30;;;;;;;10.41;91.80;101124.94;6294577;28;20233;-70
2022/10/21 00:51:26;;;;;;;5.07;2.93;;;;;;;10.47;91.07;101112.81;6284588;28;20242;-70
2022/10/21 00:54:50;;;;;;;2.70;2.47;;;;;;;10.41;91.41;101103.38;6287338;28;20230;-70
2022/10/21 00:58:11;;;;;;;5.93;4.30;;;;;;;10.46;91.35;101098.47;6289512;28;20916;-70
2022/10/21 01:01:33;;;;;;;2.83;2.40;;;;;;;10.45;92.00;101096.78;6537438;22;20217;-70
2022/10/21 01:04:59;;;;;;;5.70;4.73;;;;;;;10.51;91.31;101093.56;6253470;28;20331;-71
2022/10/21 01:08:20;;;;;;;5.23;4.13;;;;;;;10.46;92.12;101093.09;6246151;28;20228;-70
2022/10/21 01:11:44;;;;;;;6.67;3.87;;;;;;;10.58;91.55;101083.09;6253798;28;22322;-70
2022/10/21 01:15:10;;;;;;;4.63;3.60;;;;;;;10.62;91.31;101080.00;6248557;28;20219;-70
2022/10/21 01:18:41;;;;;;;4.13;3.70;;;;;;;10.72;91.20;101075.53;6259925;28;20233;-70
2022/10/21 01:22:12;;;;;;;4.27;3.73;;;;;;;10.71;91.22;101075.66;6257627;28;20527;-70
2022/10/21 01:25:51;;;;;;;7.83;3.60;;;;;;;10.69;91.80;101062.31;6242947;28;20255;-70
2022/10/21 01:29:32;;;;;;;4.60;3.23;;;;;;;10.52;92.33;101073.69;6265173;28;20224;-70
2022/10/21 01:33:18;;;;;;;2.77;2.57;;;;;;;10.71;91.88;101052.25;6264318;28;20220;-70
2022/10/21 01:36:43;;;;;;;3.40;3.03;;;;;;;10.66;91.29;101041.00;6236568;28;20230;-70
2022/10/21 01:40:09;;;;;;;4.20;3.80;;;;;;;10.52;92.40;101035.09;6239763;28;20239;-70
2022/10/21 01:43:37;;;;;;;5.07;4.63;;;;;;;10.31;92.92;101041.34;6265319;28;20227;-70
2022/10/21 01:47:01;;;;;;;5.60;4.07;;;;;;;10.27;93.74;101039.91;6265619;28;20616;-71
2022/10/21 01:50:26;;;;;;;3.77;3.27;;;;;;;10.16;94.27;101026.47;6235741;28;20234;-70
2022/10/21 01:53:53;;;;;;;4.57;3.70;;;;;;;10.21;93.97;101037.72;6251098;28;20763;-70
2022/10/21 01:57:18;;;;;;;3.20;2.90;;;;;;;10.26;93.87;101042.72;6251528;28;20228;-70
2022/10/21 02:00:40;;;;;;;3.90;3.37;;;;;;;10.28;93.84;101017.34;6237071;28;20225;-71
2022/10/21 02:04:04;;;;;;;3.53;3.20;;;;;;;10.34;93.49;101016.84;6251353;28;20316;-70
2022/10/21 02:07:26;;;;;;;5.67;4.20;;;;;;;10.44;93.21;101011.50;6263573;28;20227;-71
2022/10/21 02:10:52;;;;;;;4.57;3.87;;;;;;;10.32;93.73;101016.13;6238622;28;20482;-71
2022/10/21 02:14:18;;;;;;;6.00;2.97;;;;;;;10.41;93.24;101020.69;6271422;28;20318;-71
2022/10/21 02:17:44;;;;;;;5.60;4.03;;;;;;;10.45;93.01;101018.63;6255208;28;20231;-70
2022/10/21 02:21:09;;;;;;;5.23;3.60;;;;;;;10.56;91.95;101026.63;6248863;28;20227;-70
2022/10/21 02:24:39;;;;;;;4.87;3.93;;;;;;;10.49;92.68;101001.19;6260782;28;20227;-71
2022/10/21 02:28:00;;;;;;;4.57;4.17;;;;;;;10.49;92.48;100995.81;6245785;28;20236;-70
2022/10/21 02:31:37;;;;;;;4.20;3.67;;;;;;;10.46;92.54;100985.28;6245875;28;20231;-70
2022/10/21 02:35:08;;;;;;;4.30;3.90;;;;;;;10.51;92.71;100987.59;6240354;28;20620;-70
2022/10/21 02:38:33;;;;;;;3.03;2.70;;;;;;;10.54;91.90;100985.47;6254284;28;20555;-69
2022/10/21 02:41:58;;;;;;;6.60;3.73;;;;;;;10.23;93.43;100983.72;6249991;28;20532;-70
2022/10/21 02:45:21;;;;;;;4.23;3.70;;;;;;;10.20;93.95;100995.59;6239161;28;20234;-70
2022/10/21 02:48:45;;;;;;;5.40;3.90;;;;;;;10.14;94.42;100995.25;6264494;28;20823;-70
2022/10/21 02:52:06;;;;;;;3.90;3.03;;;;;;;10.15;94.63;100988.91;6247580;28;20235;-70
2022/10/21 02:55:27;;;;;;;4.87;3.50;;;;;;;10.00;95.28;100987.47;6260210;28;20243;-69
2022/10/21 02:58:49;;;;;;;4.50;3.77;;;;;;;10.00;95.43;100990.16;6256465;28;20459;-70
2022/10/21 03:02:10;;;;;;;5.73;4.03;;;;;;;10.08;95.49;100976.91;6261097;28;20227;-70
2022/10/21 03:05:31;;;;;;;4.00;3.70;;;;;;;10.09;95.12;100974.09;6241028;28;20235;-70
2022/10/21 03:08:52;;;;;;;4.40;4.00;;;;;;;10.27;94.22;100979.75;6264143;28;20232;-70
2022/10/21 03:12:12;;;;;;;6.13;5.17;;;;;;;10.28;94.00;100973.41;6246873;28;20231;-69
2022/10/21 03:15:35;;;;;;;5.57;3.50;;;;;;;10.33;93.84;100976.53;6246887;28;20231;-70
2022/10/21 03:18:56;;;;;;;4.77;4.20;;;;;;;10.35;93.69;100969.16;6259974;28;20227;-70
2022/10/21 03:22:17;;;;;;;5.97;4.47;;;;;;;10.39;93.52;100959.84;6256513;28;20542;-69
2022/10/21 03:25:38;;;;;;;8.77;4.83;;;;;;;10.23;94.12;100962.16;6243977;28;20470;-70
2022/10/21 03:28:58;;;;;;;4.70;4.13;;;;;;;10.25;94.19;100961.03;6263182;28;20223;-70
2022/10/21 03:32:20;;;;;;;5.27;4.53;;;;;;;10.27;94.11;100952.81;6233292;28;20228;-70
2022/10/21 03:35:41;;;;;;;10.93;4.00;;;;;;;10.30;94.17;100948.03;6260176;28;20222;-70
2022/10/21 03:39:02;;;;;;;4.27;3.53;;;;;;;10.37;94.10;100937.56;6268518;28;20243;-70
2022/10/21 03:42:23;;;;;;;7.00;3.40;;;;;;;10.35;94.35;100943.09;6268526;28;20575;-69
2022/10/21 03:45:47;;;;;;;5.63;4.40;;;;;;;10.31;94.58;100924.63;6249281;28;20231;-70
2022/10/21 03:49:10;;;;;;;6.63;3.80;;;;;;;10.35;94.13;100926.91;6258518;28;20231;-70
2022/10/21 03:52:30;;;;;;;5.70;4.20;;;;;;;10.36;94.32;100946.66;6264469;28;20250;-71
2022/10/21 03:55:52;;;;;;;4.83;3.67;;;;;;;10.31;94.51;100938.09;6253752;28;20235;-71
2022/10/21 03:59:13;;;;;;;5.23;4.73;;;;;;;10.29;94.21;100934.69;6262536;28;20220;-70
2022/10/21 04:02:34;;;;;;;4.60;3.67;;;;;;;10.27;94.67;100923.19;6258036;28;20643;-71
2022/10/21 04:05:56;;;;;;;5.70;5.17;;;;;;;10.27;94.42;100917.78;6249214;28;20232;-70
2022/10/21 04:09:17;;;;;;;5.37;4.37;;;;;;;10.17;95.14;100930.34;6253203;28;20235;-70
2022/10/21 04:12:38;;;;;;;5.50;5.00;;;;;;;10.10;95.45;100923.75;6258155;28;20222;-70
2022/10/21 04:16:01;;;;;;;3.83;3.47;;;;;;;10.21;95.13;100905.72;6247876;28;20783;-70
2022/10/21 04:19:22;;;;;;;4.07;3.67;;;;;;;10.10;95.24;100907.59;6261996;28;20228;-71
2022/10/21 04:22:44;;;;;;;7.27;4.43;;;;;;;10.06;95.86;100904.31;6248063;28;20728;-70
2022/10/21 04:26:06;;;;;;;4.73;4.23;;;;;;;10.08;95.61;100909.56;6245413;28;20236;-70
2022/10/21 04:29:27;;;;;;;5.43;3.87;;;;;;;10.09;96.14;100908.59;6265592;28;20417;-70
2022/10/21 04:32:49;;;;;;;4.17;3.77;;;;;;;10.22;94.90;100912.78;6258892;28;20228;-70
2022/10/21 04:36:10;;;;;;;6.00;3.87;;;;;;;10.04;95.39;100906.28;6266770;28;20235;-70
2022/10/21 04:39:32;;;;;;;5.83;4.83;;;;;;;10.03;95.59;100901.91;6266573;28;20235;-71
2022/10/21 04:42:53;;;;;;;5.17;3.87;;;;;;;10.06;95.62;100904.31;6261519;28;20323;-70
2022/10/21 04:46:15;;;;;;;5.93;4.07;;;;;;;10.06;95.54;100912.41;6240983;28;20251;-70
2022/10/21 04:49:36;;;;;;;4.83;3.67;;;;;;;10.06;96.20;100909.69;6274734;28;20227;-70
2022/10/21 04:52:57;;;;;;;5.63;4.70;;;;;;;10.03;96.05;100907.28;6258112;28;20231;-71
2022/10/21 04:56:20;;;;;;;6.73;4.50;;;;;;;10.15;95.42;100900.88;6250804;28;20235;-69
2022/10/21 04:59:41;;;;;;;4.20;3.60;;;;;;;10.28;94.48;100898.78;6269674;28;20287;-70
2022/10/21 05:03:01;;;;;;;5.43;4.90;;;;;;;10.26;94.22;100886.47;6226379;28;20239;-69
2022/10/21 05:06:22;;;;;;;8.53;3.70;;;;;;;10.25;93.95;100884.75;6239606;28;20225;-70
2022/10/21 05:09:43;;;;;;;4.97;4.00;;;;;;;10.12;94.65;100892.19;6273605;28;20247;-70
2022/10/21 05:13:05;;;;;;;9.13;5.93;;;;;;;10.05;95.13;100891.84;6261853;28;20231;-69
2022/10/21 05:16:26;;;;;;;7.93;4.20;;;;;;;10.12;95.31;100881.41;6250153;28;20550;-71
2022/10/21 05:19:47;;;;;;;7.93;4.53;;;;;;;10.17;94.81;100874.66;6250863;28;20227;-70
2022/10/21 05:23:08;;;;;;;9.33;5.33;;;;;;;10.15;94.49;100867.69;6265909;28;21237;-70
2022/10/21 05:26:29;;;;;;;7.83;5.13;;;;;;;10.10;94.91;100869.88;6237735;28;20850;-69
2022/10/21 05:29:52;;;;;;;4.40;4.00;;;;;;;10.13;95.20;100869.66;6245488;28;20224;-70
2022/10/21 05:33:13;;;;;;;7.43;5.83;;;;;;;10.04;95.56;100873.97;6250908;28;20232;-71
2022/10/21 05:36:34;;;;;;;6.37;4.77;;;;;;;10.04;95.36;100873.97;6241978;28;20778;-73
2022/10/21 05:39:55;;;;;;;6.30;5.20;;;;;;;10.00;96.25;100872.53;6228312;28;20228;-70
2022/10/21 05:43:16;;;;;;;6.40;4.80;;;;;;;10.06;95.46;100874.69;6248641;28;20232;-73
2022/10/21 05:46:38;;;;;;;6.23;5.10;;;;;;;10.11;95.31;100879.72;6240859;28;20227;-73
2022/10/21 05:49:59;;;;;;;7.30;5.20;;;;;;;10.17;95.38;100871.09;6236834;28;20255;-72
2022/10/21 05:53:20;;;;;;;5.93;4.80;;;;;;;10.12;95.12;100866.09;6240855;28;20232;-73
2022/10/21 05:56:41;;;;;;;6.03;4.53;;;;;;;10.33;94.76;100863.38;6263639;28;20891;-73
2022/10/21 06:00:03;;;;;;;5.53;4.60;;;;;;;10.14;95.49;100858.75;6255754;28;20231;-74
2022/10/21 06:03:29;;;;;;;5.43;4.03;;;;;;;10.18;95.73;100862.03;6260156;28;20240;-72
2022/10/21 06:06:50;;;;;;;5.87;5.37;;;;;;;10.19;95.90;100861.91;6237025;28;20235;-71
2022/10/21 06:10:11;;;;;;;5.80;4.80;;;;;;;10.30;96.30;100879.81;6222542;28;21533;-72
2022/10/21 06:13:33;;;;;;;7.10;4.60;;;;;;;10.34;96.28;100875.88;6232817;28;20235;-71
2022/10/21 06:16:54;;;;;;;6.07;4.50;;;;;;;10.52;96.16;100866.16;6233052;28;20227;-71
2022/10/21 06:20:16;;;;;;;6.47;4.17;;;;;;;10.66;95.19;100868.47;6244284;28;20318;-70
2022/10/21 06:23:37;;;;;;;7.10;5.00;;;;;;;10.67;94.38;100866.63;6258930;28;20717;-72
2022/10/21 06:26:58;;;;;;;6.33;5.03;;;;;;;10.68;94.24;100861.09;6239359;28;21091;-72
2022/10/21 06:30:19;;;;;;;6.13;4.67;;;;;;;10.77;93.47;100856.72;6250220;28;20235;-71
2022/10/21 06:33:40;;;;;;;6.13;4.80;;;;;;;10.80;93.54;100860.00;6258544;28;20302;-69
2022/10/21 06:37:02;;;;;;;5.93;4.67;;;;;;;10.71;93.04;100868.91;6238457;28;20605;-69
2022/10/21 06:40:23;;;;;;;6.17;5.30;;;;;;;10.67;93.59;100862.09;6243155;28;20420;-70
2022/10/21 06:43:44;;;;;;;8.20;5.63;;;;;;;10.82;93.37;100871.50;6267059;28;20215;-69
2022/10/21 06:47:04;;;;;;;6.13;4.43;;;;;;;10.76;93.48;100882.84;6239320;28;20227;-70
2022/10/21 06:50:26;;;;;;;5.70;4.80;;;;;;;10.91;93.48;100873.34;6228299;28;20235;-69
2022/10/21 06:53:52;;;;;;;5.07;4.20;;;;;;;10.80;92.79;100883.41;6254338;28;20504;-70
2022/10/21 06:57:13;;;;;;;8.93;5.10;;;;;;;10.91;94.68;100873.34;6251222;28;20218;-70
2022/10/21 07:00:34;;;;;;;8.63;4.80;;;;;;;11.63;93.91;100871.16;6234429;28;20615;-71
2022/10/21 07:03:55;;;;;;;5.70;4.80;;;;;;;11.24;92.33;100855.97;6249404;28;20223;-70
2022/10/21 07:07:16;;;;;;;7.97;4.47;;;;;;;11.17;92.78;100858.38;6271233;28;20250;-70
2022/10/21 07:10:41;;;;;;;9.20;5.57;;;;;;;11.30;92.17;100860.78;6234857;28;20710;-69
2022/10/21 07:14:02;;;;;;;8.73;5.73;;;;;;;11.22;91.91;100860.66;6253610;28;20326;-72
2022/10/21 07:17:22;;;;;;;7.43;4.73;;;;;;;11.34;91.86;100874.84;6250437;28;20227;-72
2022/10/21 07:20:43;;;;;;;12.43;6.93;;;;;;;11.13;92.39;100883.06;6235248;28;20600;-71
2022/10/21 07:24:04;;;;;;;7.97;4.93;;;;;;;10.85;92.78;100879.31;6238823;28;20262;-71
2022/10/21 07:27:26;;;;;;;7.93;4.83;;;;;;;10.87;93.65;100871.94;6223883;28;20236;-70
2022/10/21 07:30:48;;;;;;;5.30;4.67;;;;;;;10.93;94.23;100867.84;6232899;28;20235;-70
2022/10/21 07:34:12;;;;;;;6.33;4.30;;;;;;;10.90;93.90;100870.81;6252192;28;20562;-69
2022/10/21 07:37:33;;;;;;;7.70;4.90;;;;;;;11.08;93.25;100867.28;6246100;28;20231;-70
2022/10/21 07:40:54;;;;;;;9.90;4.17;;;;;;;11.43;92.35;100872.13;6238621;28;20236;-71
2022/10/21 07:44:17;;;;;;;6.97;4.87;;;;;;;11.26;92.57;100883.66;6223225;28;20237;-70
2022/10/21 07:47:38;;;;;;;8.57;5.00;;;;;;;11.53;91.64;100877.56;6241633;28;20497;-70
2022/10/21 07:51:03;;;;;;;7.20;5.47;;;;;;;11.40;91.93;100882.38;6220090;28;20236;-70
2022/10/21 07:54:24;;;;;;;8.10;5.17;;;;;;;11.41;92.45;100876.84;6235937;28;22281;-70
2022/10/21 07:57:45;;;;;;;7.57;6.27;;;;;;;11.32;92.31;100893.03;6218313;28;20556;-69
2022/10/21 08:01:09;;;;;;;9.20;7.10;;;;;;;11.22;92.85;100882.25;6231368;28;20926;-71
2022/10/21 08:04:32;;;;;;;10.87;5.80;;;;;;;11.05;93.18;100897.25;6265314;28;20807;-69
2022/10/21 08:07:53;;;;;;;7.63;6.60;;;;;;;11.09;93.10;100903.22;6248531;28;22478;-72
2022/10/21 08:11:21;;;;;;;7.27;5.77;;;;;;;11.11;92.84;100895.84;6232507;28;20256;-72
2022/10/21 08:14:42;;;;;;;8.83;5.30;;;;;;;11.04;93.20;100895.53;6247394;28;21311;-72
2022/10/21 08:18:04;;;;;;;7.57;5.20;;;;;;;11.23;93.40;100902.81;6254693;28;20565;-71
2022/10/21 08:21:24;;;;;;;7.97;6.10;;;;;;;11.30;93.02;100895.03;6241409;28;20251;-73
2022/10/21 08:24:45;;;;;;;8.93;5.97;;;;;;;11.27;92.17;100905.09;6252079;28;20567;-71
2022/10/21 08:28:06;;;;;;;9.73;5.97;;;;;;;11.33;92.29;100894.75;6258268;28;20251;-73
2022/10/21 08:31:27;;;;;;;6.20;5.40;;;;;;;11.50;91.54;100907.53;6246812;28;20223;-73
2022/10/21 08:34:49;;;;;;;8.00;6.07;;;;;;;11.71;90.55;100898.34;6253720;28;20711;-72
2022/10/21 08:38:11;;;;;;;6.50;4.93;;;;;;;11.77;91.02;100896.91;6235563;28;20243;-72
2022/10/21 08:42:01;;;;;;;6.70;5.87;;;;;;;11.72;90.50;100900.03;6239445;28;20230;-72
2022/10/21 08:45:28;;;;;;;9.10;4.77;;;;;;;11.84;91.11;100892.66;6239183;28;20231;-73
2022/10/21 08:48:54;;;;;;;5.60;4.53;;;;;;;11.95;89.29;100889.78;6248713;28;20235;-73
2022/10/21 08:52:21;;;;;;;8.77;5.73;;;;;;;11.94;89.93;100888.06;6242781;28;20227;-74
2022/10/21 08:55:44;;;;;;;7.23;4.57;;;;;;;12.06;89.49;100886.91;6252007;28;20230;-71
2022/10/21 08:59:16;;;;;;;7.20;4.80;;;;;;;11.96;89.58;100878.84;6268102;28;20230;-72
2022/10/21 09:02:47;;;;;;;8.93;5.20;;;;;;;11.65;89.64;100882.69;6258544;28;20253;-71
2022/10/21 09:06:21;;;;;;;6.97;5.37;;;;;;;11.76;90.21;100882.56;6266097;28;20239;-70
2022/10/21 09:09:52;;;;;;;9.37;5.80;;;;;;;11.98;89.95;100870.56;6281003;28;20231;-73
2022/10/21 09:13:19;;;;;;;7.47;6.53;;;;;;;12.13;89.05;100858.31;6246921;28;20238;-72
2022/10/21 09:16:50;;;;;;;6.17;5.37;;;;;;;12.12;87.95;100861.16;6264030;28;20226;-74
2022/10/21 09:20:26;;;;;;;6.97;4.57;;;;;;;12.15;88.56;100855.47;6262031;28;20318;-71
2022/10/21 09:23:58;;;;;;;4.73;4.23;;;;;;;12.47;91.63;100859.50;6257195;28;20268;-73
2022/10/21 09:27:21;;;;;;;6.87;6.17;;;;;;;12.70;87.70;100849.94;6265092;28;20227;-74
2022/10/21 09:30:44;;;;;;;8.33;5.03;;;;;;;12.93;87.52;100844.16;6251468;28;21156;-74
2022/10/21 09:34:15;;;;;;;7.67;4.77;;;;;;;13.18;85.12;100838.88;6266527;28;20228;-74
2022/10/21 09:37:41;;;;;;;5.30;4.70;;;;;;;15.28;78.37;100823.84;6253572;28;20231;-71
2022/10/21 09:41:05;;;;;;;6.17;5.57;;;;;;;16.93;69.76;100816.78;6249574;28;20818;-72
2022/10/21 09:44:28;;;;;;;7.33;4.80;;;;;;;18.51;65.02;100816.66;6272704;28;20318;-73
2022/10/21 09:47:57;;;;;;;10.27;7.03;;;;;;;18.62;61.81;100823.53;6256074;28;21759;-72
2022/10/21 09:51:21;;;;;;;4.35;3.97;;;;;;;16.87;67.88;100825.69;6260634;28;20250;-72
2022/10/21 09:54:43;;;;;;;6.67;5.20;;;;;;;14.95;74.17;100836.53;6275439;28;20571;-74
2022/10/21 09:58:04;;;;;;;5.77;4.23;;;;;;;14.88;76.76;100844.47;6277152;28;20349;-72
2022/10/21 10:01:29;;;;;;;8.43;6.93;;;;;;;16.05;73.49;100836.97;6257363;28;20227;-73
2022/10/21 10:04:49;;;;;;;8.77;6.65;;;;;;;16.87;69.63;100833.84;6261527;28;20223;-73
2022/10/21 10:08:21;;;;;;;6.55;4.40;;;;;;;18.91;62.89;100828.97;6267225;28;20382;-71
2022/10/21 10:11:52;;;;;;;5.80;3.80;;;;;;;19.56;60.68;100832.47;6261925;28;20227;-72
2022/10/21 10:15:24;;;;;;;5.90;4.88;;;;;;;19.82;59.21;100835.44;6260173;28;21883;-71
2022/10/21 10:18:47;;;;;;;6.38;4.03;;;;;;;22.67;51.42;100827.81;6276299;28;20230;-75
2022/10/21 10:22:11;;;;;;;4.97;4.10;;;;;;;24.45;46.65;100826.44;6261900;28;20519;-71
2022/10/21 10:25:35;;;;;;;7.55;3.60;;;;;;;25.72;43.30;100823.59;6258793;28;20268;-73
2022/10/21 10:28:57;;;;;;;5.78;5.28;;;;;;;24.96;45.02;100837.16;6273027;28;20227;-72
2022/10/21 10:32:18;;;;;;;4.80;3.50;;;;;;;26.79;40.38;100826.81;6254876;28;20246;-76
2022/10/21 10:35:47;;;;;;;6.47;4.10;;;;;;;28.80;37.34;100831.63;6246155;28;20222;-71
2022/10/21 10:39:16;;;;;;;3.85;3.55;;;;;;;29.45;35.88;100826.09;6258814;28;20235;-69
2022/10/21 10:42:44;;;;;;;5.93;4.80;;;;;;;26.66;40.29;100826.22;6268684;28;20230;-70
2022/10/21 10:46:09;;;;;;;6.07;4.35;;;;;;;26.38;42.32;100824.19;6256917;28;20254;-68
2022/10/21 10:49:35;;;;;;;3.72;3.42;;;;;;;30.21;34.54;100819.34;6276468;28;20269;-68
2022/10/21 10:53:22;;;;;;;5.22;3.47;;;;;;;30.00;34.88;100810.81;6252415;28;20239;-68
2022/10/21 10:56:47;;;;;;;7.80;4.05;;;;;;;27.99;38.71;100810.97;6248584;28;20743;-68
2022/10/21 11:00:18;;;;;;;4.95;4.10;;;;;;;27.97;38.73;100809.53;6248187;28;20314;-69
2022/10/21 11:03:43;;;;;;;5.07;4.47;;;;;;;27.83;38.12;100806.19;6257730;28;20223;-69
2022/10/21 11:07:13;;;;;;;3.28;3.00;;;;;;;27.02;40.18;100800.16;6246504;28;20542;-69
2022/10/21 11:10:39;;;;;;;4.57;4.18;;;;;;;27.54;40.34;100807.31;6262098;28;20230;-67
2022/10/21 11:14:00;;;;;;;4.13;3.33;;;;;;;28.48;38.90;100809.22;6258220;28;20543;-69
2022/10/21 11:17:28;;;;;;;10.13;5.10;;;;;;;30.26;35.43;100795.16;6254789;28;20248;-68
2022/10/21 11:20:58;;;;;;;9.50;3.83;;;;;;;31.96;32.50;100793.41;6256868;28;20227;-68
2022/10/21 11:24:44;;;;;;;5.30;4.78;;;;;;;31.81;32.36;100787.78;6275672;28;20219;-69
2022/10/21 11:28:17;;;;;;;4.53;4.03;;;;;;;32.94;30.84;100784.25;6274689;28;20265;-69
2022/10/21 11:31:45;;;;;;;4.18;3.78;;;;;;;32.50;31.02;100782.47;6265364;28;20317;-68
2022/10/21 11:35:17;;;;;;;4.43;3.00;;;;;;;31.99;32.59;100773.28;6268263;28;20234;-68
2022/10/21 11:39:07;;;;;;;5.10;4.28;;;;;;;29.25;36.58;100775.88;6274868;28;20658;-68
2022/10/21 11:42:33;;;;;;;4.32;3.88;;;;;;;30.59;35.33;100766.16;6252284;28;20498;-69
2022/10/21 11:46:04;;;;;;;4.78;4.25;;;;;;;31.68;32.91;100777.16;6245260;28;20276;-69
2022/10/21 11:49:45;;;;;;;8.15;3.65;;;;;;;31.16;33.32;100768.94;6255542;28;20283;-69
2022/10/21 11:53:25;;;;;;;4.32;3.90;;;;;;;30.63;34.39;100767.28;6274364;28;20234;-69
2022/10/21 11:56:52;;;;;;;4.70;4.28;;;;;;;28.76;38.26;100767.47;6260893;28;20223;-68
2022/10/21 12:00:17;;;;;;;3.95;3.65;;;;;;;27.87;41.01;100768.56;6264137;28;20713;-68
2022/10/21 12:03:57;;;;;;;5.28;3.15;;;;;;;28.60;39.54;100761.97;6265883;28;20230;-69
2022/10/21 12:07:43;;;;;;;4.68;4.10;;;;;;;27.84;40.78;100758.00;6255754;28;20230;-69
2022/10/21 12:11:10;;;;;;;3.45;3.17;;;;;;;26.78;42.88;100750.44;6258025;28;20231;-68
2022/10/21 12:14:36;;;;;;;4.32;3.92;;;;;;;25.40;47.23;100740.16;6274185;28;20231;-69
2022/10/21 12:18:00;;;;;;;5.18;3.90;;;;;;;24.03;50.26;100745.44;6246796;28;20322;-68
2022/10/21 12:21:25;;;;;;;4.20;3.90;;;;;;;23.88;51.62;100750.47;6244947;28;20655;-69
2022/10/21 12:24:52;;;;;;;4.63;4.13;;;;;;;23.71;51.90;100760.38;6258545;28;20254;-69
2022/10/21 12:28:18;;;;;;;6.28;3.63;;;;;;;23.03;53.54;100757.41;6259706;28;20235;-68
2022/10/21 12:31:48;;;;;;;7.05;4.45;;;;;;;21.94;57.06;100757.53;6248538;28;20525;-72
2022/10/21 12:35:13;;;;;;;8.77;4.78;;;;;;;21.97;57.51;100752.47;6249620;28;20330;-76
2022/10/21 12:38:46;;;;;;;5.05;4.38;;;;;;;21.48;58.57;100754.78;6278259;28;20501;-75
2022/10/21 12:42:12;;;;;;;5.32;4.28;;;;;;;19.21;66.81;100758.69;6265178;28;20222;-76
2022/10/21 12:45:37;;;;;;;5.28;3.50;;;;;;;19.89;65.03;100753.41;6272705;28;20231;-75
2022/10/21 12:49:06;;;;;;;4.78;4.03;;;;;;;19.83;65.51;100755.06;6276249;28;20223;-76
2022/10/21 12:52:27;;;;;;;5.60;4.28;;;;;;;20.28;64.08;100763.81;6273368;28;20562;-75
2022/10/21 12:55:52;;;;;;;4.22;3.83;;;;;;;20.42;63.56;100762.84;6264475;28;20669;-75
2022/10/21 12:59:28;;;;;;;4.75;3.92;;;;;;;20.08;65.05;100763.66;6270546;28;20311;-75
2022/10/21 13:03:01;;;;;;;7.25;4.10;;;;;;;19.46;67.02;100770.94;6260230;28;20250;-74
2022/10/21 13:06:52;;;;;;;5.25;3.55;;;;;;;20.04;64.97;100770.59;6267726;28;20222;-76
2022/10/21 13:10:26;;;;;;;4.30;3.58;;;;;;;19.47;67.40;100769.88;6263179;28;20234;-75
2022/10/21 13:13:49;;;;;;;6.72;4.63;;;;;;;18.54;71.34;100766.28;6258635;28;20435;-75
2022/10/21 13:17:32;;;;;;;8.30;4.80;;;;;;;19.40;68.36;100769.81;6260938;28;20227;-75
2022/10/21 13:20:58;;;;;;;4.00;3.50;;;;;;;18.95;69.39;100771.00;6264204;28;20219;-76
2022/10/21 13:24:24;;;;;;;13.70;5.50;;;;;;;18.53;72.15;100778.25;6272468;28;20436;-75
2022/10/21 13:27:50;;;;;;;6.13;4.00;;;;;;;18.64;71.79;100775.03;6249382;28;20894;-76
2022/10/21 13:31:20;;;;;;;4.28;3.38;;;;;;;18.09;73.86;100786.41;6256250;28;20265;-75
2022/10/21 13:34:53;;;;;;;6.75;4.22;;;;;;;18.07;74.85;100780.28;6270785;28;20243;-75
2022/10/21 13:38:21;;;;;;;7.80;4.40;;;;;;;17.53;76.71;100783.19;6251064;28;20969;-75
2022/10/21 13:41:43;;;;;;;6.30;3.70;;;;;;;17.94;75.85;100778.19;6219548;28;20336;-75
2022/10/21 13:45:16;;;;;;;7.30;4.68;;;;;;;18.16;74.91;100776.44;6255752;28;20227;-75
2022/10/21 13:48:40;;;;;;;7.13;4.13;;;;;;;18.20;74.96;100783.22;6256242;28;20538;-75
2022/10/21 13:52:00;;;;;;;5.47;4.47;;;;;;;18.66;73.12;100775.69;6258034;28;20239;-74
2022/10/21 13:55:25;;;;;;;4.88;3.40;;;;;;;18.37;74.07;100779.28;6235393;28;20967;-74
2022/10/21 13:58:46;;;;;;;6.10;5.00;;;;;;;18.53;73.41;100780.97;6257622;28;20231;-74
2022/10/21 14:02:07;;;;;;;5.20;4.65;;;;;;;18.36;74.47;100783.00;6261816;28;20239;-73
2022/10/21 14:05:36;;;;;;;5.25;3.33;;;;;;;17.97;76.51;100777.84;6256833;28;20226;-74
2022/10/21 14:08:58;;;;;;;4.15;3.58;;;;;;;17.94;76.86;100783.66;6265942;28;20224;-74
2022/10/21 14:12:23;;;;;;;8.32;3.55;;;;;;;17.88;76.90;100776.22;6261037;28;20535;-74
2022/10/21 14:15:45;;;;;;;4.03;3.72;;;;;;;17.98;76.78;100776.78;6245501;28;21661;-74
2022/10/21 14:19:09;;;;;;;5.78;3.92;;;;;;;18.25;75.63;100773.41;6287194;28;20310;-73
2022/10/21 14:22:31;;;;;;;5.13;4.40;;;;;;;18.40;75.23;100780.78;6268341;28;21897;-74
2022/10/21 14:26:03;;;;;;;6.78;5.28;;;;;;;18.54;74.51;100766.28;6259542;28;20737;-74
2022/10/21 14:29:27;;;;;;;4.15;3.75;;;;;;;18.41;74.84;100775.13;6274093;28;20301;-74
2022/10/21 14:32:49;;;;;;;6.15;4.38;;;;;;;18.45;74.63;100761.97;6253727;28;20722;-75
2022/10/21 14:36:14;;;;;;;14.27;11.18;;;;;;;18.43;75.26;100759.41;6246245;28;20593;-76
2022/10/21 14:39:37;;;;;;;7.45;5.65;;;;;;;18.29;75.95;100769.28;6251379;28;20234;-74
2022/10/21 14:43:00;;;;;;;10.63;4.13;;;;;;;18.02;76.35;100759.00;6250208;28;20235;-75
2022/10/21 14:46:21;;;;;;;4.35;3.78;;;;;;;17.70;77.62;100764.81;6238031;28;20304;-76
2022/10/21 14:49:47;;;;;;;5.40;3.72;;;;;;;17.50;78.68;100753.56;6237582;28;20374;-74
2022/10/21 14:53:17;;;;;;;4.00;3.35;;;;;;;17.78;77.38;100761.16;6231178;28;20227;-73
2022/10/21 14:56:45;;;;;;;4.28;3.33;;;;;;;17.77;77.43;100759.47;6252461;28;20755;-73
2022/10/21 15:00:19;;;;;;;4.93;3.38;;;;;;;17.62;78.12;100758.59;6254437;28;20320;-73
2022/10/21 15:03:42;;;;;;;4.65;2.92;;;;;;;17.74;77.29;100760.69;6254282;28;20231;-74
2022/10/21 15:07:02;;;;;;;2.78;2.58;;;;;;;17.78;76.97;100759.28;6250398;28;20267;-74
2022/10/21 15:10:23;;;;;;;5.57;3.10;;;;;;;17.46;78.83;100760.38;6239354;28;20232;-74
2022/10/21 15:14:18;;;;;;;4.22;3.72;;;;;;;17.23;80.12;100759.53;6235171;28;20550;-73
2022/10/21 15:17:39;;;;;;;4.05;3.30;;;;;;;17.18;80.32;100756.53;6237902;28;20508;-74
2022/10/21 15:21:02;;;;;;;2.83;2.55;;;;;;;17.17;80.54;100748.53;6232881;28;20228;-73
2022/10/21 15:24:29;;;;;;;5.00;2.65;;;;;;;17.13;80.63;100748.03;6249409;28;20585;-73
2022/10/21 15:27:53;;;;;;;6.47;3.60;;;;;;;17.14;80.89;100755.19;6250046;28;20255;-73
2022/10/21 15:31:19;;;;;;;4.10;3.00;;;;;;;17.05;81.35;100752.69;6234636;28;20278;-73
2022/10/21 15:34:39;;;;;;;3.78;2.92;;;;;;;17.05;81.37;100748.09;6258535;28;20231;-74
2022/10/21 15:38:00;;;;;;;8.43;4.72;;;;;;;17.00;81.96;100745.06;6244017;28;20533;-73
2022/10/21 15:41:24;;;;;;;3.95;3.13;;;;;;;17.07;81.35;100743.31;6251506;28;20223;-74
2022/10/21 15:44:48;;;;;;;4.32;3.53;;;;;;;16.98;81.54;100744.41;6267401;28;20223;-73
2022/10/21 15:48:15;;;;;;;5.28;3.05;;;;;;;17.03;84.06;100743.88;6233814;28;20236;-74
2022/10/21 15:51:36;;;;;;;15.15;5.50;;;;;;;17.16;83.17;100750.41;6241721;28;20233;-74